WSSS/SIN METAR and TAF weather

Enter ICAO airport designator
Station Type Date Time Source
WSSS METAR 2023/02/04 03:30 UTC NOAA

WSSS 040330Z 35007KT 9999 -SHRA FEW012 FEW017CB FEW018TCU SCT040 25/24 Q1010 TEMPO FM0345 TL0445 4000 SHRA


Station Type Date Time Source
WSSS Decoded METAR 2023/02/04 03:30 UTC NOAA

Singapore / Changi Airport, Singapore (WSSS) 01-22N 103-59E 16M
Feb 03, 2023 - 10:30 PM EST / 2023.02.04 0330 UTC
Wind: from the N (350 degrees) at 8 MPH (7 KT):0
Visibility: greater than 7 mile(s):0
Sky conditions: partly cloudy
Weather: light rain showers; Cumulonimbus clouds, towering cumulus clouds observed
Temperature: 77 F (25 C)
Dew Point: 75 F (24 C)
Relative Humidity: 94%
Pressure (altimeter): 29.83 in. Hg (1010 hPa)
ob: WSSS 040330Z 35007KT 9999 -SHRA FEW012 FEW017CB FEW018TCU SCT040 25/24 Q1010 TEMPO FM0345 TL0445 4000 SHRA
cycle: 3

Station Type Date Time Source
WSSS TAF 2023/02/03 18:12 UTC NOAA

TAF WSSS 031700Z 0318/0500 01008KT 9999 FEW015 BKN030
TEMPO 0406/0409 3000 TSRA FEW012CB BKN015

Example: see airport list